Time;durP1;ratioP1;P1;durP2;ratioP2;P2;SDS_P1;SDS_P2;PMS_P1;PMS_P2;Temp;Humidity;BMP_temperature;BMP_pressure;BME280_temperature;BME280_humidity;BME280_pressure;Samples;Min_cycle;Max_cycle;Signal;HPM_P1;HPM_P2
2022/04/02 00:00:23;;;;;;;5.63;4.45;;;;;;;1.39;100.00;160934.50;5073697;28;20035;-59
2022/04/02 00:02:48;;;;;;;5.43;3.58;;;;;;;1.39;100.00;160934.50;5072723;28;20082;-59
2022/04/02 00:05:13;;;;;;;4.55;4.15;;;;;;;1.38;100.00;160931.78;5067374;28;20032;-59
2022/04/02 00:07:39;;;;;;;5.43;4.95;;;;;;;1.33;100.00;160919.78;5070978;28;20037;-58
2022/04/02 00:10:08;;;;;;;8.25;3.53;;;;;;;1.35;100.00;160923.78;5073377;28;20483;-59
2022/04/02 00:12:33;;;;;;;5.00;4.05;;;;;;;1.32;100.00;160915.72;5072366;28;20059;-60
2022/04/02 00:14:59;;;;;;;5.63;3.25;;;;;;;1.35;100.00;160925.09;5073739;28;20411;-59
2022/04/02 00:17:24;;;;;;;10.63;4.45;;;;;;;1.36;100.00;160926.47;5072392;28;20192;-59
2022/04/02 00:19:50;;;;;;;3.50;3.20;;;;;;;1.37;100.00;160929.16;5069070;28;20028;-59
2022/04/02 00:22:15;;;;;;;5.97;5.35;;;;;;;1.34;100.00;160921.09;5063363;28;20036;-59
2022/04/02 00:24:41;;;;;;;4.35;3.97;;;;;;;1.33;100.00;160918.41;5073632;28;20476;-59
2022/04/02 00:27:06;;;;;;;3.58;3.28;;;;;;;1.32;100.00;160915.72;5071160;28;20311;-59
2022/04/02 00:29:34;;;;;;;5.18;3.95;;;;;;;1.27;100.00;160905.00;5072947;28;20107;-59
2022/04/02 00:31:59;;;;;;;6.07;3.75;;;;;;;1.09;100.00;160858.06;5072506;28;20129;-60
2022/04/02 00:34:25;;;;;;;5.45;3.67;;;;;;;1.19;100.00;160883.53;5073653;28;20391;-59
2022/04/02 00:36:50;;;;;;;7.63;4.72;;;;;;;1.20;100.00;160886.22;5071037;28;20051;-59
2022/04/02 00:39:15;;;;;;;6.10;3.60;;;;;;;1.02;100.00;160837.91;5071556;28;20046;-59
2022/04/02 00:41:41;;;;;;;5.30;4.32;;;;;;;1.20;100.00;160886.22;5072076;28;20040;-59
2022/04/02 00:44:12;;;;;;;4.05;3.65;;;;;;;1.19;100.00;160882.22;5071580;28;20027;-59
2022/04/02 00:46:40;;;;;;;5.25;3.92;;;;;;;1.18;100.00;160880.84;5072273;28;20051;-60
2022/04/02 00:49:06;;;;;;;4.85;4.03;;;;;;;1.18;100.00;160880.84;5073387;28;20021;-60
2022/04/02 00:51:33;;;;;;;4.55;3.33;;;;;;;1.17;100.00;160876.84;5071517;28;20119;-60
2022/04/02 00:53:59;;;;;;;10.27;5.55;;;;;;;1.17;100.00;160876.84;5058577;28;20137;-60
2022/04/02 00:56:24;;;;;;;9.88;4.57;;;;;;;1.15;100.00;160871.47;5063326;28;20571;-60
2022/04/02 00:58:50;;;;;;;4.15;3.10;;;;;;;1.13;100.00;160867.44;5058450;28;20029;-60
2022/04/02 01:01:16;;;;;;;5.20;4.07;;;;;;;1.13;100.00;160867.44;5054924;28;20037;-60
2022/04/02 01:03:43;;;;;;;4.25;3.55;;;;;;;1.15;100.00;160871.47;5073368;28;20032;-60
2022/04/02 01:06:10;;;;;;;3.42;3.22;;;;;;;1.11;100.00;160862.06;5070382;28;20025;-60
2022/04/02 01:08:36;;;;;;;4.30;3.75;;;;;;;1.11;100.00;160862.06;5072726;28;20023;-60
2022/04/02 01:11:03;;;;;;;4.50;4.07;;;;;;;1.12;100.00;160864.75;5071581;28;20041;-60
2022/04/02 01:13:29;;;;;;;4.43;4.03;;;;;;;1.13;100.00;160867.44;5072313;28;20434;-60
2022/04/02 01:15:54;;;;;;;4.20;3.80;;;;;;;1.12;100.00;160864.75;5071638;28;20356;-60
2022/04/02 01:18:20;;;;;;;6.72;3.97;;;;;;;1.09;100.00;160858.06;5072892;28;20051;-60
2022/04/02 01:20:45;;;;;;;4.80;3.67;;;;;;;1.13;100.00;160866.06;5059851;28;20033;-60
2022/04/02 01:23:10;;;;;;;3.60;3.30;;;;;;;1.10;100.00;160860.75;5070313;28;20048;-60
2022/04/02 01:25:36;;;;;;;3.70;3.40;;;;;;;1.10;100.00;160860.75;5072939;28;20017;-59
2022/04/02 01:28:03;;;;;;;3.70;3.40;;;;;;;1.14;100.00;160870.13;5070146;28;20040;-59
2022/04/02 01:30:29;;;;;;;7.75;5.03;;;;;;;0.91;100.00;160811.13;5072532;28;20046;-58
2022/04/02 01:32:55;;;;;;;3.85;3.42;;;;;;;1.12;100.00;160864.75;5071118;28;20040;-59
2022/04/02 01:35:21;;;;;;;11.48;6.13;;;;;;;1.08;100.00;160854.06;5070410;28;20450;-59
2022/04/02 01:37:48;;;;;;;9.68;3.03;;;;;;;1.11;100.00;160862.06;5068018;28;20033;-59
2022/04/02 01:40:13;;;;;;;6.30;3.25;;;;;;;1.08;100.00;160855.38;5052638;28;20032;-59
2022/04/02 01:42:39;;;;;;;7.25;3.53;;;;;;;1.13;100.00;160866.06;5065298;28;20495;-59
2022/04/02 01:45:04;;;;;;;5.22;4.50;;;;;;;1.11;100.00;160862.06;5072293;28;20488;-59
2022/04/02 01:47:30;;;;;;;4.82;3.25;;;;;;;1.11;100.00;160862.06;5070643;28;20092;-59
2022/04/02 01:49:55;;;;;;;5.53;4.78;;;;;;;1.06;100.00;160848.69;5065287;28;20029;-59
2022/04/02 01:52:21;;;;;;;5.15;4.07;;;;;;;0.94;100.00;160819.16;5038329;28;20044;-59
2022/04/02 01:54:47;;;;;;;4.47;3.38;;;;;;;0.95;100.00;160820.50;5049212;28;20025;-59
2022/04/02 01:57:13;;;;;;;3.50;3.20;;;;;;;1.07;100.00;160852.69;5050585;28;20083;-59
2022/04/02 01:59:40;;;;;;;4.28;3.92;;;;;;;1.04;100.00;160843.28;5051547;28;20025;-58
2022/04/02 02:02:07;;;;;;;6.90;3.00;;;;;;;1.03;100.00;160840.59;5059002;28;20036;-59
2022/04/02 02:04:36;;;;;;;5.40;3.85;;;;;;;1.00;100.00;160832.59;5071566;28;20103;-60
2022/04/02 02:07:02;;;;;;;5.95;3.22;;;;;;;0.98;100.00;160827.22;5070001;28;20040;-60
2022/04/02 02:09:27;;;;;;;6.40;3.40;;;;;;;0.99;100.00;160829.91;5053540;28;20116;-59
2022/04/02 02:11:53;;;;;;;3.83;3.53;;;;;;;0.94;100.00;160819.16;5058775;28;20048;-60
2022/04/02 02:14:18;;;;;;;4.97;4.47;;;;;;;0.97;100.00;160824.53;5071289;28;20020;-60
2022/04/02 02:16:43;;;;;;;5.40;4.07;;;;;;;1.02;100.00;160837.91;5069928;28;20222;-59
2022/04/02 02:19:09;;;;;;;3.22;2.83;;;;;;;0.93;100.00;160816.47;5071815;28;20016;-60
2022/04/02 02:21:34;;;;;;;3.35;3.05;;;;;;;1.03;100.00;160840.59;5069635;28;20040;-60
2022/04/02 02:24:00;;;;;;;4.30;3.90;;;;;;;0.95;100.00;160821.84;5071821;28;20495;-59
2022/04/02 02:26:25;;;;;;;4.68;3.60;;;;;;;0.97;100.00;160824.53;5070060;28;20047;-59
2022/04/02 02:28:51;;;;;;;5.60;3.50;;;;;;;0.95;100.00;160820.50;5071327;28;20024;-59
2022/04/02 02:31:16;;;;;;;10.40;5.63;;;;;;;0.91;100.00;160811.13;5070124;28;20072;-60
2022/04/02 02:36:25;;;;;;;4.88;4.00;;;;;;;0.90;100.00;160808.44;5069500;28;20110;-59
2022/04/02 02:38:52;;;;;;;6.15;5.07;;;;;;;0.88;100.00;160803.06;5071542;28;20024;-59
2022/04/02 02:41:17;;;;;;;6.32;4.60;;;;;;;0.84;100.00;160792.34;5069460;28;20082;-59
2022/04/02 02:43:42;;;;;;;5.90;3.58;;;;;;;0.82;100.00;160786.97;5071146;28;20036;-59
2022/04/02 02:46:08;;;;;;;4.82;3.97;;;;;;;0.79;100.00;160780.28;5068225;28;20031;-58
2022/04/02 02:48:34;;;;;;;6.07;4.32;;;;;;;0.78;100.00;160776.28;5071152;28;20013;-58
2022/04/02 02:51:00;;;;;;;4.90;4.32;;;;;;;0.75;100.00;160769.53;5064566;28;20028;-58
2022/04/02 02:53:25;;;;;;;4.20;3.70;;;;;;;0.73;100.00;160762.84;5070961;28;20024;-58
2022/04/02 02:55:50;;;;;;;6.55;4.57;;;;;;;0.72;100.00;160760.13;5071229;28;20055;-58
2022/04/02 02:58:16;;;;;;;5.72;3.97;;;;;;;0.70;100.00;160754.81;5069207;28;20032;-58
2022/04/02 03:00:43;;;;;;;9.68;5.47;;;;;;;0.69;100.00;160752.13;5070876;28;20020;-58
2022/04/02 03:03:09;;;;;;;10.15;4.90;;;;;;;0.71;100.00;160757.50;5069833;28;20044;-58
2022/04/02 03:05:35;;;;;;;12.75;4.03;;;;;;;0.73;100.00;160762.84;5070650;28;20021;-58
2022/04/02 03:08:01;;;;;;;13.35;4.65;;;;;;;0.73;100.00;160764.19;5069654;28;20129;-59
2022/04/02 03:10:27;;;;;;;6.63;4.68;;;;;;;0.75;100.00;160768.22;5057607;28;20049;-58
2022/04/02 03:12:55;;;;;;;6.30;4.15;;;;;;;0.72;100.00;160760.13;5065963;28;20507;-58
2022/04/02 03:15:21;;;;;;;5.28;4.70;;;;;;;0.74;100.00;160765.53;5070953;28;20035;-59
2022/04/02 03:17:48;;;;;;;4.43;3.85;;;;;;;0.71;100.00;160758.81;5069589;28;20629;-59
2022/04/02 03:20:15;;;;;;;4.70;3.83;;;;;;;0.68;100.00;160749.44;5053452;28;20053;-59
2022/04/02 03:22:43;;;;;;;4.45;4.03;;;;;;;0.68;100.00;160749.44;5038666;28;20067;-59
2022/04/02 03:25:10;;;;;;;5.17;4.70;;;;;;;0.70;100.00;160754.81;5051039;28;20413;-59
2022/04/02 03:27:37;;;;;;;7.47;4.28;;;;;;;0.68;100.00;160749.44;5049134;28;20037;-59
2022/04/02 03:30:05;;;;;;;8.02;6.88;;;;;;;0.64;100.00;160740.06;5056363;28;20025;-58
2022/04/02 03:32:30;;;;;;;6.30;4.50;;;;;;;0.66;100.00;160744.06;5055721;28;20054;-58
2022/04/02 03:34:57;;;;;;;7.88;5.65;;;;;;;0.62;100.00;160734.69;5057089;28;20021;-58
2022/04/02 03:37:24;;;;;;;6.05;5.53;;;;;;;0.46;100.00;160694.44;5055508;28;20621;-59
2022/04/02 03:39:50;;;;;;;5.70;4.63;;;;;;;0.40;100.00;160677.06;5057064;28;20032;-58
2022/04/02 03:42:15;;;;;;;7.82;3.90;;;;;;;0.46;100.00;160693.13;5055567;28;20403;-59
2022/04/02 03:44:41;;;;;;;7.72;5.00;;;;;;;0.59;100.00;160727.97;5057330;28;20024;-57
2022/04/02 03:47:09;;;;;;;10.18;4.18;;;;;;;0.63;100.00;160737.38;5056084;28;20442;-58
2022/04/02 03:49:42;;;;;;;5.38;4.13;;;;;;;0.49;100.00;160699.84;5056497;28;20024;-59
2022/04/02 03:52:08;;;;;;;7.05;4.90;;;;;;;0.63;100.00;160738.69;5055963;28;20048;-59
2022/04/02 03:54:35;;;;;;;8.25;4.50;;;;;;;0.61;100.00;160732.00;5055803;28;20449;-58
2022/04/02 03:57:05;;;;;;;6.95;5.13;;;;;;;0.48;100.00;160698.50;5055502;28;20496;-58
2022/04/02 03:59:31;;;;;;;7.03;4.13;;;;;;;0.56;100.00;160718.59;5056833;28;20029;-58
2022/04/02 04:01:57;;;;;;;6.00;4.15;;;;;;;0.57;100.00;160722.59;5064003;28;20470;-58
2022/04/02 04:04:24;;;;;;;4.72;4.22;;;;;;;0.57;100.00;160722.59;5076392;28;20024;-58
2022/04/02 04:06:49;;;;;;;8.82;5.22;;;;;;;0.57;100.00;160722.59;5070870;28;20546;-59
2022/04/02 04:09:14;;;;;;;5.35;3.75;;;;;;;0.55;100.00;160717.28;5077093;28;20021;-58
2022/04/02 04:11:40;;;;;;;8.55;4.00;;;;;;;0.51;100.00;160706.53;5075242;28;20040;-58
2022/04/02 04:14:05;;;;;;;6.47;4.47;;;;;;;0.50;100.00;160703.84;5076965;28;20079;-58
2022/04/02 04:16:31;;;;;;;5.03;4.57;;;;;;;0.50;100.00;160702.53;5075271;28;20623;-58
2022/04/02 04:18:56;;;;;;;6.97;4.25;;;;;;;0.53;100.00;160711.91;5076643;28;20024;-59
2022/04/02 04:21:21;;;;;;;6.40;4.30;;;;;;;0.53;100.00;160711.91;5075351;28;20446;-59
2022/04/02 04:23:47;;;;;;;5.93;3.75;;;;;;;0.51;100.00;160706.53;5068005;28;20021;-60
2022/04/02 04:26:13;;;;;;;4.20;3.80;;;;;;;0.51;100.00;160706.53;5056315;28;20029;-60
2022/04/02 04:28:39;;;;;;;12.18;4.20;;;;;;;0.52;100.00;160709.22;5067249;28;20494;-60
2022/04/02 04:31:05;;;;;;;4.35;4.05;;;;;;;0.56;100.00;160719.91;5074051;28;20024;-60
2022/04/02 04:33:31;;;;;;;7.07;3.92;;;;;;;0.56;100.00;160718.59;5074814;28;20387;-59
2022/04/02 04:35:57;;;;;;;4.10;3.70;;;;;;;0.53;100.00;160711.91;5075644;28;20035;-58
2022/04/02 04:38:22;;;;;;;6.18;4.07;;;;;;;0.55;100.00;160715.91;5076484;28;20021;-58
2022/04/02 04:40:47;;;;;;;6.68;3.50;;;;;;;0.54;100.00;160713.22;5074829;28;20062;-58
2022/04/02 04:43:13;;;;;;;4.00;3.70;;;;;;;0.54;100.00;160714.59;5071724;28;20372;-58
2022/04/02 04:45:38;;;;;;;3.38;3.15;;;;;;;0.57;100.00;160721.28;5073617;28;20035;-58
2022/04/02 04:48:04;;;;;;;4.13;3.72;;;;;;;0.59;100.00;160727.97;5071938;28;20041;-58
2022/04/02 04:50:29;;;;;;;5.70;3.88;;;;;;;0.59;100.00;160727.97;5071907;28;20062;-58
2022/04/02 04:52:54;;;;;;;6.30;3.80;;;;;;;0.65;100.00;160742.75;5071575;28;20492;-62
2022/04/02 04:55:20;;;;;;;9.30;5.13;;;;;;;0.40;100.00;160677.06;5059987;28;20186;-58
2022/04/02 04:57:48;;;;;;;5.03;3.50;;;;;;;0.67;100.00;160746.75;5067376;28;20033;-58
2022/04/02 05:00:15;;;;;;;3.30;3.00;;;;;;;0.73;100.00;160762.84;5073091;28;20484;-58
2022/04/02 05:02:41;;;;;;;5.65;3.55;;;;;;;0.71;100.00;160757.50;5071814;28;20051;-58
2022/04/02 05:05:07;;;;;;;7.15;3.55;;;;;;;0.69;100.00;160753.44;5070840;28;20017;-57
2022/04/02 05:07:32;;;;;;;4.10;3.75;;;;;;;0.71;100.00;160757.50;5060242;28;20136;-57
2022/04/02 05:09:58;;;;;;;4.53;3.90;;;;;;;0.69;100.00;160752.13;5055074;28;20032;-57
2022/04/02 05:12:23;;;;;;;5.97;4.72;;;;;;;0.66;100.00;160744.06;5065862;28;20507;-57
2022/04/02 05:14:49;;;;;;;6.05;4.00;;;;;;;0.64;100.00;160740.06;5072538;28;20089;-57
2022/04/02 05:17:16;;;;;;;8.00;4.03;;;;;;;0.60;100.00;160729.31;5070088;28;20041;-57
2022/04/02 05:19:41;;;;;;;3.67;3.38;;;;;;;0.57;100.00;160722.59;5072083;28;20028;-57
2022/04/02 05:22:06;;;;;;;5.47;4.53;;;;;;;0.59;100.00;160726.66;5069582;28;20554;-57
2022/04/02 05:24:32;;;;;;;9.85;4.60;;;;;;;0.58;100.00;160723.97;5060922;28;20404;-57
2022/04/02 05:26:58;;;;;;;5.28;4.25;;;;;;;0.62;100.00;160734.69;5060253;28;20143;-57
2022/04/02 05:29:23;;;;;;;6.82;5.20;;;;;;;0.61;100.00;160733.34;5067146;28;20032;-57
2022/04/02 05:31:48;;;;;;;4.88;4.45;;;;;;;0.67;100.00;160746.75;5067874;28;20044;-57
2022/04/02 05:34:14;;;;;;;4.95;4.50;;;;;;;0.65;100.00;160741.38;5066892;28;20036;-57
2022/04/02 05:36:41;;;;;;;7.15;4.18;;;;;;;0.65;100.00;160741.38;5061273;28;20044;-57
2022/04/02 05:39:06;;;;;;;6.13;5.40;;;;;;;0.63;100.00;160738.69;5063762;28;20038;-57
2022/04/02 05:41:32;;;;;;;6.55;5.25;;;;;;;0.65;100.00;160742.75;5069935;28;20119;-57
2022/04/02 05:43:57;;;;;;;5.22;4.60;;;;;;;0.62;100.00;160736.06;5069835;28;20036;-57
2022/04/02 05:46:23;;;;;;;9.10;5.60;;;;;;;0.60;100.00;160730.66;5063247;28;20047;-57
2022/04/02 05:48:48;;;;;;;8.90;6.20;;;;;;;0.61;100.00;160733.34;5070694;28;20028;-57
2022/04/02 05:51:14;;;;;;;8.27;5.55;;;;;;;0.65;100.00;160742.75;5068575;28;20042;-57
2022/04/02 05:53:39;;;;;;;8.00;5.13;;;;;;;0.52;100.00;160709.22;5070471;28;20039;-57
2022/04/02 05:56:05;;;;;;;11.02;6.30;;;;;;;0.66;100.00;160744.06;5069810;28;20032;-58
2022/04/02 05:58:30;;;;;;;6.53;4.57;;;;;;;0.68;100.00;160749.44;5071167;28;20387;-58
2022/04/02 06:00:56;;;;;;;5.80;4.93;;;;;;;0.69;100.00;160752.13;5069370;28;20020;-57
2022/04/02 06:03:21;;;;;;;11.32;6.65;;;;;;;0.66;100.00;160744.06;5069815;28;20039;-57
2022/04/02 06:05:48;;;;;;;5.85;4.40;;;;;;;0.50;100.00;160703.84;5061811;28;20032;-57
2022/04/02 06:08:15;;;;;;;6.70;5.93;;;;;;;0.66;100.00;160744.06;5057846;28;20037;-57
2022/04/02 06:10:41;;;;;;;6.32;5.40;;;;;;;0.63;100.00;160738.69;5061789;28;20356;-57
2022/04/02 06:13:06;;;;;;;7.82;5.15;;;;;;;0.47;100.00;160695.81;5062565;28;20048;-57
2022/04/02 06:15:32;;;;;;;5.95;5.45;;;;;;;0.62;100.00;160736.06;5060108;28;20075;-57
2022/04/02 06:17:57;;;;;;;5.82;5.22;;;;;;;0.61;100.00;160732.00;5063375;28;20373;-57
2022/04/02 06:20:22;;;;;;;7.65;6.03;;;;;;;0.69;100.00;160752.13;5068026;28;20081;-57
2022/04/02 06:22:48;;;;;;;9.07;6.88;;;;;;;0.72;100.00;160760.13;5062252;28;20048;-57
2022/04/02 06:25:13;;;;;;;8.18;6.47;;;;;;;0.71;100.00;160757.50;5065616;28;20409;-57
2022/04/02 06:27:47;;;;;;;9.65;6.43;;;;;;;0.74;100.00;160765.53;5059501;28;20064;-57
2022/04/02 06:30:17;;;;;;;10.30;5.72;;;;;;;0.70;100.00;160754.81;5057174;28;20024;-58
2022/04/02 06:32:42;;;;;;;9.48;6.32;;;;;;;0.70;100.00;160754.81;5059622;28;20048;-58
2022/04/02 06:35:08;;;;;;;8.55;6.18;;;;;;;0.74;100.00;160765.53;5064095;28;20036;-57
2022/04/02 06:37:35;;;;;;;8.40;6.65;;;;;;;0.73;100.00;160764.19;5063988;28;20064;-57
2022/04/02 06:40:01;;;;;;;6.68;5.95;;;;;;;0.81;100.00;160784.28;5066617;28;20103;-58
2022/04/02 06:42:26;;;;;;;10.48;6.05;;;;;;;0.82;100.00;160786.97;5064144;28;20107;-58
2022/04/02 06:44:51;;;;;;;7.10;5.90;;;;;;;0.88;100.00;160803.06;5067214;28;20039;-55
2022/04/02 06:47:17;;;;;;;9.27;5.93;;;;;;;0.89;100.00;160805.75;5059565;28;20503;-55
2022/04/02 06:49:42;;;;;;;9.60;6.22;;;;;;;0.98;100.00;160827.22;5063279;28;20020;-55
2022/04/02 06:52:07;;;;;;;5.80;5.03;;;;;;;1.02;100.00;160837.91;5060205;28;20049;-55
2022/04/02 06:54:33;;;;;;;6.70;6.00;;;;;;;1.07;100.00;160851.38;5062867;28;20028;-55
2022/04/02 06:56:59;;;;;;;11.80;7.35;;;;;;;0.78;100.00;160776.28;5062556;28;20036;-56
2022/04/02 06:59:24;;;;;;;8.10;6.28;;;;;;;1.06;100.00;160848.69;5059977;28;20083;-55
2022/04/02 07:01:49;;;;;;;10.05;4.95;;;;;;;1.07;100.00;160852.69;5063065;28;20056;-55
2022/04/02 07:04:15;;;;;;;7.25;6.55;;;;;;;1.14;100.00;160870.13;5064913;28;20037;-55
2022/04/02 07:06:44;;;;;;;10.90;6.85;;;;;;;1.17;100.00;160878.16;5063629;28;20044;-55
2022/04/02 07:09:10;;;;;;;18.90;8.75;;;;;;;1.25;100.00;160899.63;5063999;28;20036;-55
2022/04/02 07:11:35;;;;;;;7.75;6.35;;;;;;;1.25;100.00;160899.63;5057089;28;20055;-55
2022/04/02 07:14:00;;;;;;;8.20;5.50;;;;;;;1.33;100.00;160918.41;5065992;28;20597;-56
2022/04/02 07:16:28;;;;;;;7.80;5.72;;;;;;;1.34;100.00;160922.41;5059502;28;20101;-55
2022/04/02 07:18:55;;;;;;;6.03;5.53;;;;;;;1.44;100.00;160947.94;5069334;28;20078;-55
2022/04/02 07:21:25;;;;;;;15.20;7.72;;;;;;;1.47;100.00;160955.97;5067968;28;20041;-55
2022/04/02 07:23:50;;;;;;;9.93;5.72;;;;;;;1.50;100.00;160962.66;5069350;28;20024;-55
2022/04/02 07:26:18;;;;;;;7.47;5.35;;;;;;;1.57;100.00;160982.81;5067992;28;20043;-55
2022/04/02 07:28:44;;;;;;;13.65;7.00;;;;;;;1.78;100.00;161036.47;5070016;28;20032;-56
2022/04/02 07:31:10;;;;;;;12.35;7.78;;;;;;;1.62;100.00;160993.53;5068215;28;20044;-55
2022/04/02 07:33:35;;;;;;;9.93;6.07;;;;;;;1.92;100.00;161072.72;5064015;28;20043;-55
2022/04/02 07:36:08;;;;;;;6.82;5.43;;;;;;;2.15;100.00;161133.09;5058446;28;20028;-55
2022/04/02 07:38:54;;;;;;;7.85;7.05;;;;;;;2.22;100.00;161151.88;5059952;28;20013;-56
2022/04/02 07:41:36;;;;;;;8.75;6.40;;;;;;;1.93;100.00;161075.41;5066969;28;20040;-55
2022/04/02 07:44:24;;;;;;;7.55;5.25;;;;;;;1.87;100.00;161060.63;5069988;28;20025;-55
2022/04/02 07:46:51;;;;;;;10.55;6.45;;;;;;;1.87;100.00;161060.63;5063904;28;20048;-56
2022/04/02 07:49:21;;;;;;;8.18;4.50;;;;;;;2.00;100.00;161092.81;5069371;28;20036;-55
2022/04/02 07:51:52;;;;;;;9.05;6.72;;;;;;;2.03;100.00;161100.91;5067814;28;20056;-55
2022/04/02 07:54:21;;;;;;;9.98;7.60;;;;;;;2.02;100.00;161098.19;5062337;28;20023;-55
2022/04/02 07:56:49;;;;;;;7.07;6.38;;;;;;;2.29;100.00;161167.97;5066359;28;20543;-54
2022/04/02 07:59:34;;;;;;;6.45;5.88;;;;;;;2.38;100.00;161192.16;5069408;28;20044;-55
2022/04/02 08:02:00;;;;;;;9.50;8.50;;;;;;;2.15;100.00;161133.09;5065737;28;20109;-55
2022/04/02 08:04:27;;;;;;;6.65;6.05;;;;;;;2.25;100.00;161157.25;5067947;28;20089;-55
2022/04/02 08:06:52;;;;;;;7.15;6.05;;;;;;;2.39;100.00;161194.84;5068015;28;20043;-56
2022/04/02 08:09:20;;;;;;;7.28;6.38;;;;;;;2.48;100.00;161217.66;5066100;28;20428;-55
2022/04/02 08:11:48;;;;;;;8.88;6.95;;;;;;;2.74;100.00;161286.13;5060390;28;20045;-55
2022/04/02 08:14:14;;;;;;;10.25;5.07;;;;;;;2.91;100.00;161330.41;5054569;28;20024;-55
2022/04/02 08:16:43;;;;;;;7.32;5.25;;;;;;;2.80;100.00;161300.91;5056005;28;20667;-55
2022/04/02 08:19:09;;;;;;;8.85;6.40;;;;;;;2.72;100.00;161280.75;5072258;28;20107;-55
2022/04/02 08:21:34;;;;;;;8.07;6.07;;;;;;;3.09;100.00;161376.09;5071650;28;20044;-55
2022/04/02 08:24:01;;;;;;;8.85;6.43;;;;;;;2.93;100.00;161334.50;5072135;28;20082;-56
2022/04/02 08:27:01;;;;;;;7.30;5.32;;;;;;;3.18;100.00;161400.28;5070061;28;20037;-55
2022/04/02 08:29:39;;;;;;;14.30;6.70;;;;;;;3.71;100.00;161538.63;5050975;28;20025;-56
2022/04/02 08:32:14;;;;;;;15.20;7.63;;;;;;;3.89;100.00;161584.34;5062522;28;20040;-55
2022/04/02 08:35:03;;;;;;;7.95;5.43;;;;;;;4.10;100.00;161640.78;5073313;28;20473;-55
2022/04/02 08:37:37;;;;;;;8.25;5.47;;;;;;;3.96;100.00;161604.47;5071607;28;20793;-56
2022/04/02 08:40:46;;;;;;;8.23;5.78;;;;;;;4.23;100.00;161673.03;5072943;28;20028;-56
2022/04/02 08:43:51;;;;;;;13.52;6.18;;;;;;;4.10;100.00;161640.78;5027529;28;20051;-56
2022/04/02 08:46:36;;;;;;;15.00;7.35;;;;;;;3.91;100.00;161589.75;5064596;28;20116;-55
2022/04/02 08:49:21;;;;;;;9.98;5.72;;;;;;;3.75;100.00;161549.41;5072797;28;20037;-55
2022/04/02 08:51:53;;;;;;;8.50;5.10;;;;;;;3.48;100.00;161479.53;5071358;28;20037;-56
2022/04/02 08:54:25;;;;;;;8.68;6.43;;;;;;;3.54;100.00;161493.00;5073037;28;20054;-55
2022/04/02 08:56:57;;;;;;;14.18;8.30;;;;;;;3.78;100.00;161557.44;5071132;28;20048;-55
2022/04/02 08:59:35;;;;;;;7.07;5.85;;;;;;;4.24;100.00;161675.72;5072488;28;20505;-55
2022/04/02 09:02:39;;;;;;;7.07;5.28;;;;;;;4.52;100.00;161748.31;5070975;28;20507;-55
2022/04/02 09:05:06;;;;;;;7.20;4.55;;;;;;;4.04;100.00;161623.28;5067078;28;20037;-55
2022/04/02 09:07:39;;;;;;;8.80;6.00;;;;;;;3.70;100.00;161535.94;5070548;28;20041;-55
2022/04/02 09:10:23;;;;;;;12.05;5.85;;;;;;;3.89;100.00;161584.34;5072097;28;20050;-55
2022/04/02 09:12:51;;;;;;;6.20;5.22;;;;;;;4.04;100.00;161623.28;5071215;28;20048;-55
2022/04/02 09:15:53;;;;;;;11.23;7.22;;;;;;;4.39;100.00;161714.72;5071448;28;20388;-55
2022/04/02 09:18:55;;;;;;;8.23;6.18;;;;;;;5.12;100.00;161904.28;5069689;28;20048;-55
2022/04/02 09:21:29;;;;;;;12.00;7.38;;;;;;;5.98;100.00;162130.34;5070810;28;20037;-55
2022/04/02 09:24:06;;;;;;;5.05;4.65;;;;;;;5.90;100.00;162107.41;5072055;28;20384;-55
2022/04/02 09:26:44;;;;;;;8.25;5.18;;;;;;;6.17;100.00;162178.81;5069104;28;20048;-55
2022/04/02 09:29:16;;;;;;;10.43;4.28;;;;;;;5.76;100.00;162071.13;5071851;28;20024;-55
2022/04/02 09:32:05;;;;;;;7.50;4.90;;;;;;;6.06;100.00;162150.56;5055069;28;20041;-55
2022/04/02 09:35:05;;;;;;;5.78;4.68;;;;;;;6.40;100.00;162238.03;5068143;28;20605;-56
2022/04/02 09:37:58;;;;;;;3.88;3.55;;;;;;;6.28;100.00;162207.06;5058290;28;20084;-55
2022/04/02 09:41:00;;;;;;;5.57;3.97;;;;;;;5.05;100.00;161886.81;5052289;28;20425;-55
2022/04/02 09:43:37;;;;;;;4.05;3.65;;;;;;;5.33;100.00;161960.78;5046430;28;20036;-55
2022/04/02 09:46:39;;;;;;;6.18;4.78;;;;;;;6.32;100.00;162219.19;5070551;28;20476;-55
2022/04/02 09:49:27;;;;;;;5.72;3.67;;;;;;;5.72;100.00;162063.03;5069905;28;20040;-56
2022/04/02 09:52:07;;;;;;;3.95;3.60;;;;;;;5.67;100.00;162049.59;5069762;28;20043;-56
2022/04/02 09:54:46;;;;;;;5.68;3.88;;;;;;;5.29;100.00;161950.03;5071177;28;20067;-56
2022/04/02 09:57:25;;;;;;;4.95;4.45;;;;;;;5.21;100.00;161928.50;5069754;28;20040;-56
2022/04/02 10:00:07;;;;;;;4.00;3.08;;;;;;;5.27;100.00;161944.66;5070976;28;20040;-56
2022/04/02 10:03:00;;;;;;;4.07;3.67;;;;;;;5.29;100.00;161950.03;5070000;28;20048;-56
2022/04/02 10:06:02;;;;;;;9.00;3.83;;;;;;;5.24;100.00;161936.59;5070758;28;20008;-56
2022/04/02 10:08:39;;;;;;;3.40;3.10;;;;;;;4.70;98.39;161796.72;5062761;28;20140;-56
2022/04/02 10:11:07;;;;;;;4.53;3.13;;;;;;;4.99;100.00;161872.03;5070078;28;20072;-56
2022/04/02 10:13:34;;;;;;;6.38;3.30;;;;;;;5.46;100.00;161993.09;5070601;28;20038;-56
2022/04/02 10:16:00;;;;;;;4.15;3.75;;;;;;;5.47;93.94;161997.13;5070043;28;20048;-55
2022/04/02 10:18:26;;;;;;;4.38;3.80;;;;;;;5.47;94.34;161995.78;5056102;28;20039;-55
2022/04/02 10:20:53;;;;;;;6.22;3.83;;;;;;;5.81;100.00;162084.56;5057540;28;20418;-54
2022/04/02 10:23:22;;;;;;;4.47;2.78;;;;;;;6.30;96.88;162213.78;5069964;28;20025;-55
2022/04/02 10:26:21;;;;;;;6.90;4.65;;;;;;;6.63;100.00;162298.59;5062128;28;20081;-55
2022/04/02 10:28:57;;;;;;;6.93;3.67;;;;;;;7.18;97.18;162442.72;5069163;28;20051;-56
2022/04/02 10:31:42;;;;;;;4.07;3.75;;;;;;;6.53;89.78;162273.03;5069319;28;20094;-55
2022/04/02 10:34:12;;;;;;;2.90;2.42;;;;;;;5.80;88.50;162083.25;5071506;28;20093;-55
2022/04/02 10:37:10;;;;;;;3.67;2.85;;;;;;;5.39;88.38;161975.59;5069199;28;20064;-55
2022/04/02 10:40:03;;;;;;;3.63;2.40;;;;;;;5.35;84.90;161966.16;5071030;28;20029;-56
2022/04/02 10:42:39;;;;;;;3.35;3.15;;;;;;;5.18;84.53;161920.41;5067606;28;20471;-55
2022/04/02 10:45:07;;;;;;;5.50;4.05;;;;;;;5.55;86.29;162017.28;5070771;28;20031;-56
2022/04/02 10:47:41;;;;;;;3.30;2.83;;;;;;;5.65;81.85;162044.19;5058251;28;20052;-54
2022/04/02 10:50:08;;;;;;;4.35;3.05;;;;;;;5.36;82.44;161968.88;5050819;28;20094;-55
2022/04/02 10:52:34;;;;;;;3.83;3.42;;;;;;;5.42;84.72;161982.31;5062192;28;20064;-55
2022/04/02 10:55:01;;;;;;;6.80;3.25;;;;;;;5.06;82.96;161889.53;5070923;28;20028;-55
2022/04/02 10:57:32;;;;;;;4.82;2.25;;;;;;;5.02;82.09;161880.13;5068871;28;20040;-55
2022/04/02 11:00:08;;;;;;;4.93;2.60;;;;;;;5.01;83.97;161877.41;5070649;28;20713;-55
2022/04/02 11:02:41;;;;;;;4.35;2.92;;;;;;;5.42;83.12;161983.69;5069303;28;20041;-55
2022/04/02 11:05:14;;;;;;;2.67;2.22;;;;;;;5.19;80.78;161923.13;5070212;28;20078;-55
2022/04/02 11:07:43;;;;;;;3.05;2.00;;;;;;;4.86;79.66;161837.06;5068896;28;20048;-55
2022/04/02 11:10:13;;;;;;;2.40;2.22;;;;;;;5.01;80.42;161877.41;5070352;28;20029;-55
2022/04/02 11:12:42;;;;;;;3.00;2.33;;;;;;;5.38;80.77;161974.25;5068561;28;20043;-55
2022/04/02 11:15:31;;;;;;;2.55;2.35;;;;;;;6.12;78.69;162166.69;5070821;28;20071;-55
2022/04/02 11:17:58;;;;;;;2.58;2.38;;;;;;;6.29;76.11;162211.09;5068573;28;20547;-54
2022/04/02 11:20:26;;;;;;;2.90;1.90;;;;;;;6.34;73.07;162224.59;5070193;28;20024;-55
2022/04/02 11:22:51;;;;;;;2.92;2.72;;;;;;;7.10;76.45;162422.50;5068982;28;20090;-55
2022/04/02 11:25:31;;;;;;;2.80;2.60;;;;;;;6.83;73.90;162351.13;5070423;28;20115;-55
2022/04/02 11:28:11;;;;;;;2.72;2.47;;;;;;;6.41;74.27;162242.06;5068692;28;20108;-55
2022/04/02 11:30:45;;;;;;;3.80;2.53;;;;;;;5.41;84.29;161980.97;5066080;28;20090;-55
2022/04/02 11:33:26;;;;;;;3.15;2.50;;;;;;;4.98;85.94;161869.31;5051671;28;20562;-56
2022/04/02 11:36:03;;;;;;;3.20;2.90;;;;;;;4.92;87.52;161853.19;5068507;28;20456;-55
2022/04/02 11:38:39;;;;;;;3.58;3.25;;;;;;;4.95;90.33;161861.28;5051171;28;20075;-55